createdAt,value
2023-02-09T00:00:12.986Z,53.50
2023-02-09T00:02:45.991Z,53.14
2023-02-09T00:05:14.473Z,53.19
2023-02-09T00:07:42.724Z,54.18
2023-02-09T00:10:11.752Z,53.62
2023-02-09T00:12:57.590Z,53.61
2023-02-09T00:15:27.352Z,53.09
2023-02-09T00:17:55.609Z,52.83
2023-02-09T00:20:23.828Z,53.26
2023-02-09T00:22:52.080Z,53.54
2023-02-09T00:25:20.396Z,53.15
2023-02-09T00:27:48.572Z,52.83
2023-02-09T00:30:17.095Z,53.09
2023-02-09T00:32:47.825Z,54.03
2023-02-09T00:35:17.226Z,53.40
2023-02-09T00:37:45.468Z,53.80
2023-02-09T00:40:14.795Z,53.74
2023-02-09T00:42:43.111Z,53.35
2023-02-09T00:45:11.680Z,53.63
2023-02-09T00:47:39.832Z,53.72
2023-02-09T00:50:09.917Z,52.53
2023-02-09T00:52:37.987Z,53.24
2023-02-09T00:55:06.813Z,53.75
2023-02-09T00:57:35.997Z,54.18
2023-02-09T01:00:05.210Z,54.78
2023-02-09T01:02:33.383Z,55.43
2023-02-09T01:05:01.767Z,54.16
2023-02-09T01:07:31.192Z,54.24
2023-02-09T01:10:00.366Z,54.82
2023-02-09T01:12:28.590Z,54.67
2023-02-09T01:14:57.483Z,53.95
2023-02-09T01:17:27.591Z,53.36
2023-02-09T01:19:56.611Z,54.00
2023-02-09T01:22:24.821Z,53.57
2023-02-09T01:24:54.169Z,54.40
2023-02-09T01:27:22.491Z,54.48
2023-02-09T01:29:50.701Z,53.62
2023-02-09T01:32:18.810Z,54.39
2023-02-09T01:34:46.891Z,54.24
2023-02-09T01:37:14.880Z,55.35
2023-02-09T01:39:42.859Z,53.95
2023-02-09T01:42:15.874Z,54.34
2023-02-09T01:45:15.619Z,54.28
2023-02-09T01:47:49.587Z,54.12
2023-02-09T01:50:18.671Z,54.46
2023-02-09T01:52:49.441Z,53.89
2023-02-09T01:55:23.717Z,53.72
2023-02-09T01:57:58.629Z,54.04
2023-02-09T02:00:27.552Z,54.42
2023-02-09T02:03:00.820Z,54.14
2023-02-09T02:05:32.001Z,54.13
2023-02-09T02:08:05.729Z,54.39
2023-02-09T02:10:34.297Z,54.22
2023-02-09T02:13:04.737Z,54.14
2023-02-09T02:15:45.767Z,55.01
2023-02-09T02:18:31.820Z,54.83
2023-02-09T02:21:49.499Z,54.70
2023-02-09T02:24:51.692Z,54.30
2023-02-09T02:27:34.669Z,54.18
2023-02-09T02:30:44.674Z,53.63
2023-02-09T02:33:29.272Z,53.76
2023-02-09T02:36:06.673Z,53.82
2023-02-09T02:38:40.140Z,53.77
2023-02-09T02:41:15.842Z,54.86
2023-02-09T02:43:56.567Z,54.33
2023-02-09T02:46:32.215Z,54.73
2023-02-09T02:49:09.093Z,53.82
2023-02-09T02:54:39.338Z,53.80
2023-02-09T02:57:15.148Z,54.02
2023-02-09T02:59:50.793Z,53.71
2023-02-09T03:02:24.457Z,54.52
2023-02-09T03:04:57.854Z,54.43
2023-02-09T03:07:25.927Z,53.97
2023-02-09T03:09:57.595Z,54.22
2023-02-09T03:12:42.572Z,54.81
2023-02-09T03:15:50.585Z,54.86
2023-02-09T03:18:28.587Z,55.01
2023-02-09T03:21:02.995Z,55.54
2023-02-09T03:23:37.336Z,54.28
2023-02-09T03:26:12.095Z,54.45
2023-02-09T03:28:44.039Z,55.39
2023-02-09T03:31:12.458Z,55.21
2023-02-09T03:33:41.060Z,54.52
2023-02-09T03:36:16.087Z,55.33
2023-02-09T03:38:44.129Z,55.44
2023-02-09T03:41:12.562Z,55.19
2023-02-09T03:43:58.104Z,55.01
2023-02-09T03:46:26.181Z,54.06
2023-02-09T03:48:54.240Z,54.39
2023-02-09T03:51:23.575Z,54.68
2023-02-09T03:53:51.682Z,54.07
2023-02-09T03:56:19.763Z,55.09
2023-02-09T03:58:47.858Z,54.81
2023-02-09T04:01:16.098Z,54.53
2023-02-09T04:03:44.361Z,55.11
2023-02-09T04:06:12.489Z,55.42
2023-02-09T04:08:43.121Z,55.25
2023-02-09T04:11:11.682Z,55.14
2023-02-09T04:13:39.825Z,54.25
2023-02-09T04:16:08.304Z,54.36
2023-02-09T04:18:36.382Z,54.90
2023-02-09T04:21:04.812Z,55.18
2023-02-09T04:23:32.882Z,55.84
2023-02-09T04:26:02.309Z,54.96
2023-02-09T04:28:30.345Z,55.04
2023-02-09T04:30:58.784Z,55.01
2023-02-09T04:33:26.976Z,56.07
2023-02-09T04:35:55.029Z,54.71
2023-02-09T04:38:23.953Z,55.40
2023-02-09T04:40:54.749Z,55.42
2023-02-09T04:43:24.484Z,55.65
2023-02-09T04:45:52.859Z,55.62
2023-02-09T04:48:23.646Z,55.19
2023-02-09T04:50:52.136Z,54.93
2023-02-09T04:53:20.656Z,55.33
2023-02-09T04:55:51.438Z,54.93
2023-02-09T04:58:38.873Z,55.32
2023-02-09T05:01:08.957Z,54.73
2023-02-09T05:03:37.184Z,55.57
2023-02-09T05:06:06.850Z,55.29
2023-02-09T05:08:34.950Z,54.67
2023-02-09T05:11:03.342Z,55.57
2023-02-09T05:13:31.406Z,55.36
2023-02-09T05:15:59.741Z,55.74
2023-02-09T05:18:30.179Z,55.53
2023-02-09T05:20:58.336Z,55.51
2023-02-09T05:23:26.434Z,56.08
2023-02-09T05:25:54.996Z,57.01
2023-02-09T05:28:23.688Z,55.62
2023-02-09T05:30:53.779Z,56.18
2023-02-09T05:33:22.811Z,55.31
2023-02-09T05:35:55.669Z,55.86
2023-02-09T05:38:24.268Z,55.95
2023-02-09T05:40:52.428Z,55.90
2023-02-09T05:43:20.510Z,55.88
2023-02-09T05:45:48.639Z,56.02
2023-02-09T05:48:16.707Z,55.44
2023-02-09T05:50:45.025Z,55.32
2023-02-09T05:53:17.264Z,55.00
2023-02-09T05:55:45.503Z,54.88
2023-02-09T05:58:13.875Z,55.56
2023-02-09T06:00:41.896Z,54.65
2023-02-09T06:03:10.016Z,55.84
2023-02-09T06:05:38.062Z,56.00
2023-02-09T06:08:06.377Z,56.00
2023-02-09T06:10:35.778Z,55.49
2023-02-09T06:13:03.892Z,56.19
2023-02-09T06:15:31.973Z,55.96
2023-02-09T06:18:00.111Z,56.44
2023-02-09T06:20:28.322Z,56.36
2023-02-09T06:22:56.607Z,56.92
2023-02-09T06:25:24.804Z,56.18
2023-02-09T06:27:54.254Z,56.33
2023-02-09T06:30:22.687Z,55.84
2023-02-09T06:32:50.732Z,55.51
2023-02-09T06:35:19.132Z,55.93
2023-02-09T06:37:47.190Z,55.16
2023-02-09T06:40:15.201Z,56.25
2023-02-09T06:42:46.029Z,56.46
2023-02-09T06:45:18.170Z,56.39
2023-02-09T06:47:47.407Z,56.57
2023-02-09T06:50:18.086Z,56.74
2023-02-09T06:53:12.389Z,56.32
2023-02-09T06:55:40.501Z,56.44
2023-02-09T06:58:08.521Z,56.05
2023-02-09T07:00:37.892Z,55.59
2023-02-09T07:03:31.355Z,56.67
2023-02-09T07:06:05.651Z,56.22
2023-02-09T07:08:33.752Z,55.61
2023-02-09T07:11:05.553Z,55.71
2023-02-09T07:13:34.613Z,56.46
2023-02-09T07:16:07.963Z,56.16
2023-02-09T07:18:37.127Z,56.91
2023-02-09T07:21:08.573Z,56.02
2023-02-09T07:23:37.246Z,56.36
2023-02-09T07:26:09.128Z,56.75
2023-02-09T07:28:38.166Z,56.56
2023-02-09T07:31:10.544Z,56.31
2023-02-09T07:33:38.814Z,56.41
2023-02-09T07:36:09.244Z,56.52
2023-02-09T07:38:38.457Z,57.13
2023-02-09T07:41:08.803Z,56.47
2023-02-09T07:43:36.864Z,57.27
2023-02-09T07:46:08.326Z,56.80
2023-02-09T07:48:37.649Z,57.07
2023-02-09T07:51:07.059Z,57.31
2023-02-09T07:53:35.189Z,56.78
2023-02-09T07:56:05.664Z,56.61
2023-02-09T07:58:33.755Z,56.15
2023-02-09T08:01:08.247Z,56.59
2023-02-09T08:03:37.362Z,55.69
2023-02-09T08:06:12.840Z,55.78
2023-02-09T08:08:40.894Z,56.00
2023-02-09T08:11:09.024Z,55.86
2023-02-09T08:13:40.973Z,54.77
2023-02-09T08:16:15.740Z,54.87
2023-02-09T08:18:48.961Z,54.54
2023-02-09T08:21:18.573Z,54.09
2023-02-09T08:23:52.390Z,54.03
2023-02-09T08:26:20.806Z,54.20
2023-02-09T08:28:49.232Z,54.33
2023-02-09T08:31:21.782Z,54.45
2023-02-09T08:33:51.610Z,53.43
2023-02-09T08:36:21.465Z,54.08
2023-02-09T08:38:49.850Z,54.04
2023-02-09T08:41:20.063Z,54.34
2023-02-09T08:43:51.794Z,54.34
2023-02-09T08:46:21.520Z,54.17
2023-02-09T08:48:49.601Z,54.10
2023-02-09T08:51:17.950Z,54.22
2023-02-09T08:53:52.201Z,54.49
2023-02-09T08:56:21.943Z,53.99
2023-02-09T08:58:50.870Z,53.71
2023-02-09T09:01:20.544Z,53.83
2023-02-09T09:03:49.453Z,53.56
2023-02-09T09:06:17.704Z,53.02
2023-02-09T09:08:45.940Z,53.19
2023-02-09T09:11:14.907Z,52.80
2023-02-09T09:13:43.368Z,53.42
2023-02-09T09:16:17.113Z,52.38
2023-02-09T09:18:46.714Z,52.75
2023-02-09T09:21:15.951Z,52.48
2023-02-09T09:23:44.202Z,52.95
2023-02-09T09:26:12.919Z,52.69
2023-02-09T09:28:40.947Z,52.17
2023-02-09T09:31:10.286Z,52.11
2023-02-09T09:33:38.853Z,52.49
2023-02-09T09:36:09.751Z,51.65
2023-02-09T09:38:39.635Z,51.42
2023-02-09T09:41:25.334Z,50.68
2023-02-09T09:43:55.790Z,50.94
2023-02-09T09:46:34.289Z,50.90
2023-02-09T09:49:04.113Z,50.93
2023-02-09T09:51:41.580Z,50.30
2023-02-09T09:54:18.356Z,50.17
2023-02-09T09:56:46.504Z,50.18
2023-02-09T09:59:18.915Z,49.81
2023-02-09T10:01:48.419Z,49.69
2023-02-09T10:04:17.912Z,49.36
2023-02-09T10:06:51.229Z,48.67
2023-02-09T10:09:33.262Z,49.18
2023-02-09T10:12:17.472Z,49.18
2023-02-09T10:14:45.684Z,49.18
2023-02-09T10:17:13.799Z,48.86
2023-02-09T10:19:41.926Z,48.32
2023-02-09T10:22:14.131Z,48.40
2023-02-09T10:24:42.313Z,48.22
2023-02-09T10:27:16.262Z,48.62
2023-02-09T10:29:44.297Z,48.45
2023-02-09T10:32:19.601Z,46.47
2023-02-09T10:34:51.410Z,47.16
2023-02-09T10:37:27.821Z,47.38
2023-02-09T10:40:07.297Z,47.10
2023-02-09T10:42:38.284Z,46.61
2023-02-09T10:45:15.414Z,46.75
2023-02-09T10:47:43.551Z,46.67
2023-02-09T10:50:19.472Z,46.31
2023-02-09T10:53:01.384Z,46.31
2023-02-09T10:55:37.217Z,47.13
2023-02-09T10:58:22.401Z,47.59
2023-02-09T11:00:59.020Z,46.89
2023-02-09T11:03:27.363Z,45.72
2023-02-09T11:06:14.896Z,45.38
2023-02-09T11:08:49.217Z,45.96
2023-02-09T11:11:32.318Z,45.42
2023-02-09T11:14:01.148Z,45.11
2023-02-09T11:16:50.666Z,44.66
2023-02-09T11:19:44.994Z,44.18
2023-02-09T11:22:18.175Z,44.50
2023-02-09T11:25:01.547Z,42.30
2023-02-09T11:28:02.497Z,43.13
2023-02-09T11:31:02.135Z,42.89
2023-02-09T11:33:44.117Z,42.10
2023-02-09T11:36:29.744Z,43.35
2023-02-09T11:39:01.669Z,43.18
2023-02-09T11:41:56.349Z,42.49
2023-02-09T11:44:31.204Z,41.70
2023-02-09T11:47:06.308Z,42.34
2023-02-09T11:49:45.272Z,42.27
2023-02-09T11:52:19.460Z,41.69
2023-02-09T11:54:53.075Z,41.26
2023-02-09T11:57:37.132Z,41.41
2023-02-09T12:00:08.263Z,40.73
2023-02-09T12:02:53.547Z,41.18
2023-02-09T12:05:23.553Z,41.24
2023-02-09T12:08:26.358Z,40.72
2023-02-09T12:11:11.692Z,40.85
2023-02-09T12:14:08.187Z,41.16
2023-02-09T12:16:42.268Z,41.28
2023-02-09T12:19:31.081Z,42.01
2023-02-09T12:21:59.281Z,41.50
2023-02-09T12:24:40.135Z,41.80
2023-02-09T12:27:26.965Z,41.66
2023-02-09T12:29:56.596Z,41.38
2023-02-09T12:32:45.600Z,41.50
2023-02-09T12:35:29.848Z,41.53
2023-02-09T12:38:16.163Z,41.48
2023-02-09T12:40:44.444Z,40.89
2023-02-09T12:43:30.003Z,41.07
2023-02-09T12:46:24.369Z,41.48
2023-02-09T12:49:19.953Z,41.77
2023-02-09T12:52:20.841Z,41.33
2023-02-09T12:54:52.662Z,41.75
2023-02-09T12:57:55.049Z,41.49
2023-02-09T13:00:54.918Z,41.36
2023-02-09T13:03:26.321Z,41.60
2023-02-09T13:06:00.654Z,41.82
2023-02-09T13:08:39.835Z,42.01
2023-02-09T13:11:24.089Z,42.10
2023-02-09T13:13:56.836Z,42.20
2023-02-09T13:16:51.298Z,41.50
2023-02-09T13:19:48.071Z,41.64
2023-02-09T13:22:51.114Z,41.94
2023-02-09T13:25:30.954Z,42.06
2023-02-09T13:28:10.796Z,41.93
2023-02-09T13:30:38.901Z,42.82
2023-02-09T13:33:23.694Z,43.60
2023-02-09T13:36:13.506Z,43.83
2023-02-09T13:38:44.864Z,44.48
2023-02-09T13:41:27.996Z,44.38
2023-02-09T13:43:56.271Z,45.13
2023-02-09T13:46:27.452Z,45.77
2023-02-09T13:48:56.368Z,45.02
2023-02-09T13:51:25.893Z,44.98
2023-02-09T13:53:58.878Z,45.08
2023-02-09T13:56:27.909Z,45.10
2023-02-09T13:58:57.156Z,45.16
2023-02-09T14:01:30.842Z,45.37
2023-02-09T14:04:06.454Z,46.66
2023-02-09T14:06:41.350Z,45.94
2023-02-09T14:09:14.706Z,46.17
2023-02-09T14:11:49.217Z,45.69
2023-02-09T14:14:23.228Z,46.44
2023-02-09T14:17:24.494Z,45.52
2023-02-09T14:19:54.441Z,46.02
2023-02-09T14:22:33.733Z,45.96
2023-02-09T14:25:06.467Z,45.52
2023-02-09T14:27:36.376Z,45.96
2023-02-09T14:30:04.916Z,45.33
2023-02-09T14:32:36.136Z,46.50
2023-02-09T14:35:20.826Z,46.25
2023-02-09T14:37:52.866Z,45.88
2023-02-09T14:40:32.029Z,46.23
2023-02-09T14:43:03.635Z,45.85
2023-02-09T14:45:44.579Z,45.64
2023-02-09T14:48:21.520Z,45.48
2023-02-09T14:50:51.431Z,45.14
2023-02-09T14:53:22.912Z,45.67
2023-02-09T14:55:51.107Z,45.07
2023-02-09T14:58:24.366Z,44.69
2023-02-09T15:00:55.193Z,44.39
2023-02-09T15:03:23.987Z,45.91
2023-02-09T15:05:57.698Z,46.93
2023-02-09T15:08:29.362Z,46.55
2023-02-09T15:11:01.096Z,46.84
2023-02-09T15:13:32.627Z,46.60
2023-02-09T15:16:00.696Z,46.06
2023-02-09T15:18:29.018Z,46.25
2023-02-09T15:20:58.991Z,46.43
2023-02-09T15:23:28.415Z,45.47
2023-02-09T15:25:56.432Z,46.84
2023-02-09T15:28:29.927Z,46.92
2023-02-09T15:30:59.647Z,46.68
2023-02-09T15:33:29.943Z,46.70
2023-02-09T15:35:59.895Z,46.28
2023-02-09T15:38:29.459Z,46.92
2023-02-09T15:41:23.844Z,47.09
2023-02-09T15:44:09.651Z,46.68
2023-02-09T15:46:55.232Z,46.99
2023-02-09T15:49:23.594Z,46.61
2023-02-09T15:51:51.871Z,46.99
2023-02-09T15:54:27.184Z,47.68
2023-02-09T15:56:55.342Z,48.20
2023-02-09T15:59:24.602Z,47.72
2023-02-09T16:01:52.774Z,47.50
2023-02-09T16:04:20.891Z,47.31
2023-02-09T16:06:52.700Z,48.09
2023-02-09T16:09:26.643Z,47.66
2023-02-09T16:11:55.088Z,47.54
2023-02-09T16:14:25.977Z,47.01
2023-02-09T16:16:54.211Z,46.85
2023-02-09T16:19:22.522Z,47.52
2023-02-09T16:21:56.382Z,47.25
2023-02-09T16:24:32.416Z,47.84
2023-02-09T16:27:01.554Z,48.17
2023-02-09T16:29:29.788Z,47.98
2023-02-09T16:31:57.912Z,48.43
2023-02-09T16:34:25.977Z,48.25
2023-02-09T16:36:54.030Z,48.72
2023-02-09T16:39:23.622Z,48.36
2023-02-09T16:41:53.563Z,48.60
2023-02-09T16:44:24.944Z,48.82
2023-02-09T16:46:56.382Z,48.72
2023-02-09T16:49:37.751Z,49.59
2023-02-09T16:52:16.005Z,49.97
2023-02-09T16:54:50.273Z,50.30
2023-02-09T16:57:23.411Z,50.04
2023-02-09T16:59:52.269Z,49.75
2023-02-09T17:02:39.412Z,49.56
2023-02-09T17:05:18.638Z,49.32
2023-02-09T17:07:54.886Z,50.80
2023-02-09T17:10:27.272Z,51.02
2023-02-09T17:12:56.768Z,50.39
2023-02-09T17:15:31.172Z,51.18
2023-02-09T17:18:04.548Z,50.99
2023-02-09T17:20:39.056Z,50.79
2023-02-09T17:23:08.414Z,51.03
2023-02-09T17:25:37.210Z,51.03
2023-02-09T17:28:06.647Z,51.52
2023-02-09T17:30:35.697Z,51.21
2023-02-09T17:33:07.426Z,51.13
2023-02-09T17:36:10.160Z,51.80
2023-02-09T17:38:30.811Z,51.75
2023-02-09T17:41:01.670Z,52.42
2023-02-09T17:43:31.392Z,51.78
2023-02-09T17:46:00.615Z,52.15
2023-02-09T17:48:29.782Z,52.28
2023-02-09T17:51:00.300Z,52.69
2023-02-09T17:53:33.721Z,52.81
2023-02-09T17:58:57.350Z,53.12
2023-02-09T18:01:28.731Z,52.35
2023-02-09T18:03:59.539Z,53.17
2023-02-09T18:06:35.156Z,52.80
2023-02-09T18:09:06.091Z,52.54
2023-02-09T18:11:57.226Z,53.05
2023-02-09T18:14:28.700Z,53.02
2023-02-09T18:16:57.087Z,52.79
2023-02-09T18:19:26.171Z,52.98
2023-02-09T18:21:57.227Z,52.26
2023-02-09T18:24:28.685Z,52.71
2023-02-09T18:26:57.209Z,52.31
2023-02-09T18:29:29.486Z,52.20
2023-02-09T18:31:58.324Z,52.50
2023-02-09T18:34:27.507Z,52.03
2023-02-09T18:36:55.653Z,52.56
2023-02-09T18:39:24.042Z,52.38
2023-02-09T18:41:54.320Z,52.54
2023-02-09T18:44:26.786Z,52.40
2023-02-09T18:46:56.506Z,52.97
2023-02-09T18:49:24.587Z,53.27
2023-02-09T18:51:53.146Z,53.08
2023-02-09T18:54:21.550Z,53.31
2023-02-09T18:56:52.761Z,53.33
2023-02-09T18:59:21.060Z,53.33
2023-02-09T19:01:50.467Z,53.13
2023-02-09T19:04:20.306Z,53.06
2023-02-09T19:06:48.293Z,52.83
2023-02-09T19:09:16.409Z,53.29
2023-02-09T19:11:44.926Z,53.46
2023-02-09T19:14:30.700Z,53.73
2023-02-09T19:16:58.871Z,53.52
2023-02-09T19:19:28.644Z,53.37
2023-02-09T19:21:57.877Z,53.55
2023-02-09T19:24:26.459Z,53.86
2023-02-09T19:26:57.678Z,53.84
2023-02-09T19:29:25.849Z,53.67
2023-02-09T19:31:56.042Z,53.56
2023-02-09T19:34:24.586Z,53.36
2023-02-09T19:36:54.085Z,54.35
2023-02-09T19:39:22.103Z,54.50
2023-02-09T19:41:50.190Z,54.75
2023-02-09T19:44:18.451Z,54.14
2023-02-09T19:46:46.521Z,53.69
2023-02-09T19:49:14.704Z,54.16
2023-02-09T19:51:43.071Z,54.09
2023-02-09T19:54:12.466Z,54.27
2023-02-09T19:56:41.668Z,54.43
2023-02-09T19:59:10.341Z,54.54
2023-02-09T20:01:39.777Z,54.24
2023-02-09T20:04:08.246Z,54.17
2023-02-09T20:06:36.613Z,54.52
2023-02-09T20:09:05.505Z,54.46
2023-02-09T20:11:35.150Z,54.39
2023-02-09T20:14:05.337Z,54.27
2023-02-09T20:16:33.810Z,54.20
2023-02-09T20:19:02.103Z,54.74
2023-02-09T20:21:30.306Z,54.71
2023-02-09T20:23:58.993Z,54.76
2023-02-09T20:26:32.886Z,54.89
2023-02-09T20:29:05.642Z,55.78
2023-02-09T20:31:38.304Z,55.16
2023-02-09T20:34:09.785Z,55.48
2023-02-09T20:36:40.391Z,55.27
2023-02-09T20:39:13.415Z,55.13
2023-02-09T20:42:02.231Z,54.81
2023-02-09T20:44:49.040Z,55.16
2023-02-09T20:47:17.396Z,54.78
2023-02-09T20:49:45.973Z,54.52
2023-02-09T20:52:14.155Z,55.02
2023-02-09T20:54:42.217Z,55.07
2023-02-09T20:57:10.700Z,54.98
2023-02-09T20:59:40.401Z,55.30
2023-02-09T21:02:08.806Z,54.69
2023-02-09T21:04:36.839Z,54.70
2023-02-09T21:07:05.071Z,55.00
2023-02-09T21:09:34.304Z,54.87
2023-02-09T21:12:02.373Z,55.02
2023-02-09T21:14:41.784Z,54.92
2023-02-09T21:17:12.631Z,55.93
2023-02-09T21:19:40.807Z,54.86
2023-02-09T21:22:09.447Z,55.66
2023-02-09T21:24:38.791Z,54.60
2023-02-09T21:27:07.261Z,55.25
2023-02-09T21:29:36.224Z,55.13
2023-02-09T21:32:07.278Z,54.92
2023-02-09T21:34:36.836Z,55.25
2023-02-09T21:37:07.843Z,55.34
2023-02-09T21:39:35.973Z,55.56
2023-02-09T21:42:21.504Z,55.35
2023-02-09T21:44:49.656Z,54.51
2023-02-09T21:47:18.949Z,54.46
2023-02-09T21:49:49.471Z,54.78
2023-02-09T21:52:17.534Z,55.13
2023-02-09T21:54:45.670Z,55.47
2023-02-09T21:57:13.720Z,55.64
2023-02-09T21:59:44.372Z,55.69
2023-02-09T22:02:16.059Z,55.25
2023-02-09T22:04:45.624Z,55.40
2023-02-09T22:07:15.779Z,55.41
2023-02-09T22:09:43.868Z,55.04
2023-02-09T22:12:11.984Z,55.46
2023-02-09T22:14:40.082Z,54.80
2023-02-09T22:17:08.067Z,55.36
2023-02-09T22:19:36.588Z,55.01
2023-02-09T22:22:05.172Z,55.07
2023-02-09T22:24:34.875Z,55.44
2023-02-09T22:27:04.906Z,55.39
2023-02-09T22:29:34.467Z,54.36
2023-02-09T22:32:03.084Z,55.13
2023-02-09T22:34:31.184Z,55.37
2023-02-09T22:36:59.205Z,55.30
2023-02-09T22:39:27.291Z,54.86
2023-02-09T22:41:59.291Z,55.06
2023-02-09T22:44:30.092Z,54.35
2023-02-09T22:46:58.640Z,55.85
2023-02-09T22:49:26.687Z,54.96
2023-02-09T22:51:54.814Z,55.31
2023-02-09T22:54:22.899Z,54.69
2023-02-09T22:56:51.159Z,55.05
2023-02-09T22:59:20.697Z,55.73
2023-02-09T23:01:49.118Z,56.08
2023-02-09T23:04:17.205Z,55.44
2023-02-09T23:06:45.631Z,55.75
2023-02-09T23:09:15.088Z,55.36
2023-02-09T23:11:44.290Z,55.32
2023-02-09T23:14:13.645Z,55.51
2023-02-09T23:16:44.998Z,55.78
2023-02-09T23:19:16.509Z,55.75
2023-02-09T23:21:48.040Z,55.52
2023-02-09T23:24:18.956Z,55.57
2023-02-09T23:26:47.103Z,55.53
2023-02-09T23:29:17.113Z,56.57
2023-02-09T23:31:48.030Z,56.83
2023-02-09T23:34:19.203Z,55.44
2023-02-09T23:36:47.259Z,56.97
2023-02-09T23:39:18.094Z,57.19
2023-02-09T23:41:46.253Z,56.66
2023-02-09T23:44:14.414Z,56.50
2023-02-09T23:46:42.540Z,55.93
2023-02-09T23:49:12.619Z,56.29
2023-02-09T23:51:40.669Z,56.33
2023-02-09T23:54:09.254Z,55.29
2023-02-09T23:56:37.795Z,56.22
2023-02-09T23:59:09.286Z,56.77
